Time;durP1;ratioP1;P1;durP2;ratioP2;P2;SDS_P1;SDS_P2;PMS_P1;PMS_P2;Temp;Humidity;BMP_temperature;BMP_pressure;BME280_temperature;BME280_humidity;BME280_pressure;Samples;Min_cycle;Max_cycle;Signal;HPM_P1;HPM_P2
2022/02/13 00:01:37;;;;;;;11.38;8.68;;;20.10;59.90;;;;;;5033532;28;20029;-72
2022/02/13 00:04:03;;;;;;;10.05;8.35;;;20.00;59.90;;;;;;5016239;28;20029;-72
2022/02/13 00:06:29;;;;;;;10.18;8.60;;;20.00;59.90;;;;;;5033430;28;20025;-72
2022/02/13 00:08:55;;;;;;;12.02;8.52;;;20.00;59.90;;;;;;5015984;28;20025;-72
2022/02/13 00:11:20;;;;;;;10.63;8.43;;;20.00;60.00;;;;;;5015364;28;20399;-72
2022/02/13 00:13:47;;;;;;;9.43;7.95;;;19.90;60.00;;;;;;5033283;28;20032;-72
2022/02/13 00:16:12;;;;;;;11.27;8.05;;;19.90;59.90;;;;;;5015503;28;20045;-72
2022/02/13 00:18:38;;;;;;;11.35;7.93;;;19.90;60.00;;;;;;5015665;28;20014;-72
2022/02/13 00:21:04;;;;;;;13.73;8.00;;;19.90;60.00;;;;;;5033297;28;20488;-72
2022/02/13 00:23:29;;;;;;;10.68;7.60;;;19.90;60.00;;;;;;5032538;28;20036;-71
2022/02/13 00:25:55;;;;;;;8.45;7.55;;;19.90;60.00;;;;;;5032721;28;20079;-71
2022/02/13 00:28:21;;;;;;;9.30;8.05;;;19.80;60.10;;;;;;5032987;28;20446;-71
2022/02/13 00:30:46;;;;;;;8.85;7.93;;;19.80;60.10;;;;;;5032878;28;20033;-71
2022/02/13 00:33:15;;;;;;;10.15;7.85;;;19.80;60.10;;;;;;5033057;28;20030;-71
2022/02/13 00:35:41;;;;;;;8.90;7.22;;;19.80;60.10;;;;;;5015333;28;20033;-71
2022/02/13 00:38:08;;;;;;;8.63;7.72;;;19.80;60.20;;;;;;5014836;28;20045;-71
2022/02/13 00:40:34;;;;;;;8.85;6.82;;;19.80;60.20;;;;;;5032889;28;20026;-71
2022/02/13 00:43:00;;;;;;;9.95;7.30;;;19.70;60.10;;;;;;5032720;28;20029;-72
2022/02/13 00:45:25;;;;;;;9.57;7.28;;;19.70;60.20;;;;;;5015204;28;20037;-72
2022/02/13 00:47:51;;;;;;;8.30;7.45;;;19.70;60.20;;;;;;5032894;28;20574;-71
2022/02/13 00:50:16;;;;;;;9.25;7.70;;;19.70;60.20;;;;;;5014889;28;20168;-71
2022/02/13 00:52:42;;;;;;;8.27;7.32;;;19.70;60.20;;;;;;5032111;28;20013;-72
2022/02/13 00:55:08;;;;;;;8.73;7.35;;;19.70;60.30;;;;;;5032754;28;20037;-71
2022/02/13 00:57:34;;;;;;;9.70;7.65;;;19.60;60.20;;;;;;5014974;28;20488;-71
2022/02/13 00:59:59;;;;;;;10.23;7.13;;;19.60;60.20;;;;;;5014909;28;20464;-72
2022/02/13 01:02:25;;;;;;;9.57;7.28;;;19.60;60.30;;;;;;5032552;28;20021;-71
2022/02/13 01:04:50;;;;;;;7.57;6.78;;;19.60;60.30;;;;;;5014874;28;20025;-72
2022/02/13 01:07:16;;;;;;;8.98;7.50;;;19.60;61.40;;;;;;5032213;28;20029;-71
2022/02/13 01:09:42;;;;;;;7.32;6.63;;;19.60;60.40;;;;;;5014782;28;20030;-71
2022/02/13 01:12:08;;;;;;;8.18;6.90;;;19.50;60.40;;;;;;5032063;28;20032;-72
2022/02/13 01:14:34;;;;;;;8.02;6.95;;;19.50;60.30;;;;;;5032435;28;20026;-72
2022/02/13 01:16:59;;;;;;;7.70;6.82;;;19.50;60.40;;;;;;5014450;28;20045;-71
2022/02/13 01:19:25;;;;;;;7.57;6.65;;;19.50;60.50;;;;;;5032379;28;20018;-72
2022/02/13 01:21:51;;;;;;;8.43;6.53;;;19.50;60.50;;;;;;5031867;28;20021;-71
2022/02/13 01:24:16;;;;;;;7.32;6.60;;;19.40;60.40;;;;;;5032124;28;20029;-72
2022/02/13 01:26:42;;;;;;;7.50;6.80;;;19.40;60.50;;;;;;5032202;28;20522;-71
2022/02/13 01:29:08;;;;;;;7.85;6.80;;;19.40;60.50;;;;;;5014534;28;20029;-72
2022/02/13 01:31:36;;;;;;;7.45;6.60;;;19.40;60.50;;;;;;5032215;28;20037;-71
2022/02/13 01:34:02;;;;;;;7.30;6.40;;;19.40;60.50;;;;;;5032101;28;20107;-72
2022/02/13 01:36:27;;;;;;;9.05;6.45;;;19.30;60.50;;;;;;5001506;28;20053;-72
2022/02/13 01:38:53;;;;;;;8.02;6.47;;;19.30;60.60;;;;;;5036292;28;20114;-72
2022/02/13 01:41:19;;;;;;;7.78;6.35;;;19.30;60.60;;;;;;5036302;28;20030;-72
2022/02/13 01:43:44;;;;;;;7.70;6.63;;;19.30;60.50;;;;;;5036223;28;20036;-71
2022/02/13 01:46:10;;;;;;;7.00;6.20;;;19.30;60.60;;;;;;5036110;28;20475;-71
2022/02/13 01:48:35;;;;;;;7.35;6.20;;;19.30;60.70;;;;;;5018382;28;20077;-71
2022/02/13 01:51:01;;;;;;;7.82;6.15;;;19.30;60.60;;;;;;5017967;28;20080;-71
2022/02/13 01:53:28;;;;;;;7.47;5.95;;;19.30;60.70;;;;;;5014962;28;20053;-71
2022/02/13 01:55:53;;;;;;;7.55;5.50;;;19.30;60.70;;;;;;5016199;28;20062;-71
2022/02/13 01:58:19;;;;;;;8.23;6.32;;;19.20;60.70;;;;;;5016033;28;20433;-72
2022/02/13 02:00:45;;;;;;;7.93;5.82;;;19.20;60.70;;;;;;5016062;28;20061;-72
2022/02/13 02:03:10;;;;;;;8.00;6.03;;;19.20;60.80;;;;;;5015072;28;20033;-72
2022/02/13 02:05:36;;;;;;;6.30;5.70;;;19.20;60.80;;;;;;5014633;28;20101;-72
2022/02/13 02:08:02;;;;;;;6.78;5.85;;;19.20;60.70;;;;;;5014754;28;20037;-72
2022/02/13 02:10:28;;;;;;;10.98;5.72;;;19.20;60.80;;;;;;5014645;28;20114;-72
2022/02/13 02:12:54;;;;;;;5.72;5.13;;;19.20;60.80;;;;;;5034940;28;20026;-72
2022/02/13 02:15:19;;;;;;;6.30;5.57;;;19.10;60.80;;;;;;5035603;28;20042;-72
2022/02/13 02:17:45;;;;;;;7.28;5.55;;;19.20;60.90;;;;;;5035505;28;20052;-72
2022/02/13 02:20:12;;;;;;;6.15;5.55;;;19.10;60.90;;;;;;5035229;28;20025;-72
2022/02/13 02:22:38;;;;;;;6.63;5.53;;;19.10;60.90;;;;;;5018192;28;20056;-72
2022/02/13 02:25:04;;;;;;;6.00;5.28;;;19.10;60.90;;;;;;5017761;28;20571;-72
2022/02/13 02:27:29;;;;;;;7.70;5.50;;;19.10;60.90;;;;;;5035449;28;20026;-72
2022/02/13 02:29:55;;;;;;;6.28;5.68;;;19.10;60.90;;;;;;5017460;28;20052;-72
2022/02/13 02:32:21;;;;;;;6.25;5.65;;;19.10;61.00;;;;;;5035283;28;20503;-72
2022/02/13 02:34:46;;;;;;;5.50;5.00;;;19.10;61.00;;;;;;5034985;28;20431;-72
2022/02/13 02:37:12;;;;;;;6.03;5.40;;;19.10;61.00;;;;;;5035268;28;20112;-72
2022/02/13 02:39:38;;;;;;;6.88;5.60;;;19.00;61.00;;;;;;5035111;28;20458;-72
2022/02/13 02:42:04;;;;;;;5.65;5.15;;;19.10;61.00;;;;;;5017334;28;20033;-72
2022/02/13 02:44:31;;;;;;;5.78;5.03;;;19.00;61.00;;;;;;5017616;28;20030;-72
2022/02/13 02:46:57;;;;;;;6.13;5.25;;;19.00;61.10;;;;;;5016700;28;20053;-72
2022/02/13 02:49:22;;;;;;;5.28;4.68;;;19.00;61.10;;;;;;5017040;28;20131;-72
2022/02/13 02:51:48;;;;;;;6.15;5.22;;;19.00;61.10;;;;;;5034699;28;20036;-72
2022/02/13 02:54:14;;;;;;;5.38;4.70;;;19.00;61.10;;;;;;5017313;28;20365;-72
2022/02/13 02:56:40;;;;;;;5.45;4.68;;;19.00;61.10;;;;;;5017246;28;20056;-72
2022/02/13 02:59:05;;;;;;;6.03;5.05;;;18.90;61.10;;;;;;5017273;28;20148;-72
2022/02/13 03:01:31;;;;;;;5.43;4.90;;;19.00;61.20;;;;;;5034889;28;20083;-72
2022/02/13 03:03:56;;;;;;;5.25;4.75;;;18.90;61.20;;;;;;5034267;28;20056;-72
2022/02/13 03:06:23;;;;;;;6.00;5.00;;;18.90;61.20;;;;;;5034696;28;20037;-72
2022/02/13 03:08:49;;;;;;;6.00;4.82;;;18.90;61.30;;;;;;5017039;28;20026;-72
2022/02/13 03:11:14;;;;;;;5.78;4.65;;;18.90;61.30;;;;;;5034577;28;20431;-71
2022/02/13 03:13:41;;;;;;;5.60;5.07;;;18.90;62.30;;;;;;5034451;28;20026;-71
2022/02/13 03:16:07;;;;;;;7.35;5.15;;;18.90;61.30;;;;;;5034232;28;20068;-71
2022/02/13 03:18:32;;;;;;;5.13;4.63;;;18.90;61.40;;;;;;5034063;28;20444;-72
2022/02/13 03:20:58;;;;;;;5.40;4.78;;;18.90;61.30;;;;;;5034278;28;20029;-71
2022/02/13 03:23:24;;;;;;;4.82;4.30;;;18.90;61.40;;;;;;5034446;28;20025;-71
2022/02/13 03:25:50;;;;;;;4.22;3.83;;;18.80;61.30;;;;;;5016799;28;20037;-71
2022/02/13 03:28:16;;;;;;;6.57;4.35;;;18.80;61.30;;;;;;5016797;28;20025;-71
2022/02/13 03:30:41;;;;;;;4.95;4.45;;;18.80;61.30;;;;;;5016344;28;20033;-71
2022/02/13 03:33:07;;;;;;;5.05;4.10;;;18.80;61.40;;;;;;5033876;28;20488;-72
2022/02/13 03:35:33;;;;;;;4.47;3.83;;;18.80;61.50;;;;;;5016662;28;20495;-71
2022/02/13 03:37:58;;;;;;;5.82;4.65;;;18.80;62.50;;;;;;5016367;28;20067;-71
2022/02/13 03:40:25;;;;;;;4.85;4.35;;;18.70;61.40;;;;;;5016402;28;20107;-71
2022/02/13 03:42:51;;;;;;;6.72;4.07;;;18.70;61.40;;;;;;5016299;28;20036;-72
2022/02/13 03:45:17;;;;;;;4.88;4.38;;;18.70;61.40;;;;;;5016282;28;20456;-72
2022/02/13 03:47:43;;;;;;;4.72;4.32;;;18.70;61.40;;;;;;5016054;28;20571;-72
2022/02/13 03:50:09;;;;;;;4.55;4.15;;;18.70;61.40;;;;;;5016060;28;20026;-72
2022/02/13 03:52:34;;;;;;;6.13;4.45;;;18.70;61.50;;;;;;5033750;28;20101;-72
2022/02/13 03:55:00;;;;;;;5.00;4.03;;;18.70;61.90;;;;;;5033698;28;20409;-72
2022/02/13 03:57:28;;;;;;;4.32;3.92;;;18.70;61.40;;;;;;5033711;28;20033;-72
2022/02/13 03:59:54;;;;;;;4.32;3.92;;;18.70;61.50;;;;;;5015266;28;20044;-72
2022/02/13 04:02:20;;;;;;;5.80;4.15;;;18.60;61.50;;;;;;5015703;28;20021;-72
2022/02/13 04:04:45;;;;;;;4.82;4.03;;;18.60;61.50;;;;;;5033495;28;20028;-72
2022/02/13 04:07:11;;;;;;;4.72;4.00;;;18.60;61.50;;;;;;5033386;28;20391;-71
2022/02/13 04:09:38;;;;;;;5.75;3.47;;;18.60;61.60;;;;;;5016013;28;20029;-71
2022/02/13 04:12:04;;;;;;;5.65;4.30;;;18.60;61.60;;;;;;5015593;28;20026;-71
2022/02/13 04:14:30;;;;;;;5.20;4.15;;;18.60;61.60;;;;;;5015782;28;20022;-71
2022/02/13 04:16:56;;;;;;;4.60;4.00;;;18.60;61.70;;;;;;5015113;28;20038;-71
2022/02/13 04:19:21;;;;;;;5.22;4.00;;;18.60;61.60;;;;;;5015652;28;20025;-71
2022/02/13 04:21:47;;;;;;;4.32;3.78;;;18.60;61.70;;;;;;5033435;28;20037;-71
2022/02/13 04:24:12;;;;;;;6.53;3.83;;;18.60;61.60;;;;;;5033112;28;20044;-71
2022/02/13 04:26:38;;;;;;;4.38;3.72;;;18.60;61.60;;;;;;5033219;28;20026;-71
2022/02/13 04:29:04;;;;;;;4.38;3.97;;;18.60;61.60;;;;;;5032826;28;20036;-71
2022/02/13 04:31:29;;;;;;;4.38;3.60;;;18.60;61.70;;;;;;5032785;28;20108;-71
2022/02/13 04:33:55;;;;;;;4.63;3.85;;;18.60;61.70;;;;;;5033036;28;20037;-71
2022/02/13 04:36:22;;;;;;;4.60;3.63;;;18.50;61.70;;;;;;5033146;28;20458;-71
2022/02/13 04:38:48;;;;;;;5.28;3.97;;;18.50;61.70;;;;;;5032820;28;20313;-71
2022/02/13 04:41:13;;;;;;;4.13;3.40;;;18.50;61.70;;;;;;5032847;28;20076;-72
2022/02/13 04:43:39;;;;;;;4.40;3.83;;;18.50;61.70;;;;;;5032739;28;20400;-71
2022/02/13 04:46:05;;;;;;;4.20;3.80;;;18.50;61.70;;;;;;5014936;28;20052;-71
2022/02/13 04:48:30;;;;;;;4.40;3.75;;;18.50;61.80;;;;;;5032873;28;20029;-71
2022/02/13 04:50:56;;;;;;;4.80;3.70;;;18.50;61.80;;;;;;5032678;28;20026;-71
2022/02/13 04:53:21;;;;;;;4.00;3.60;;;18.50;61.80;;;;;;5032385;28;20032;-71
2022/02/13 04:55:47;;;;;;;4.57;3.78;;;18.50;61.80;;;;;;5032670;28;20033;-71
2022/02/13 04:58:13;;;;;;;3.60;3.30;;;18.50;61.90;;;;;;5032530;28;20052;-72
2022/02/13 05:00:38;;;;;;;3.85;3.45;;;18.50;61.90;;;;;;5032293;28;20029;-71
2022/02/13 05:03:04;;;;;;;3.50;3.20;;;18.50;61.90;;;;;;5032513;28;20061;-71
2022/02/13 05:05:29;;;;;;;4.05;3.20;;;18.40;61.90;;;;;;5032412;28;20108;-71
2022/02/13 05:07:55;;;;;;;4.03;3.63;;;18.40;61.90;;;;;;5032677;28;20037;-71
2022/02/13 05:10:21;;;;;;;3.83;3.33;;;18.40;61.90;;;;;;5032021;28;20144;-71
2022/02/13 05:12:46;;;;;;;5.00;3.55;;;18.40;61.90;;;;;;5014233;28;20388;-71
2022/02/13 05:15:12;;;;;;;4.00;3.60;;;18.40;61.90;;;;;;4994384;28;20124;-71
2022/02/13 05:17:39;;;;;;;4.07;3.22;;;18.40;61.90;;;;;;4995295;28;20053;-71
2022/02/13 05:20:05;;;;;;;3.40;3.10;;;18.40;62.00;;;;;;5012585;28;20030;-71
2022/02/13 05:22:31;;;;;;;4.13;3.72;;;18.40;61.90;;;;;;5012823;28;20022;-71
2022/02/13 05:24:57;;;;;;;3.67;2.95;;;18.40;62.00;;;;;;5012468;28;20030;-71
2022/02/13 05:27:22;;;;;;;3.08;2.85;;;18.40;62.00;;;;;;4995070;28;20021;-71
2022/02/13 05:29:48;;;;;;;4.32;3.45;;;18.40;62.00;;;;;;5012359;28;20044;-71
2022/02/13 05:32:13;;;;;;;3.63;3.28;;;18.30;62.00;;;;;;5012257;28;20033;-71
2022/02/13 05:34:39;;;;;;;3.38;3.08;;;18.30;62.00;;;;;;5012695;28;20033;-71
2022/02/13 05:37:05;;;;;;;3.33;3.03;;;18.30;62.00;;;;;;4994843;28;20508;-71
2022/02/13 05:39:31;;;;;;;4.32;3.25;;;18.30;62.00;;;;;;5012428;28;20026;-71
2022/02/13 05:41:57;;;;;;;3.90;3.20;;;18.30;62.00;;;;;;5012460;28;20029;-71
2022/02/13 05:44:23;;;;;;;3.67;3.03;;;18.30;62.00;;;;;;5011913;28;20116;-71
2022/02/13 05:46:48;;;;;;;3.30;2.80;;;18.30;62.00;;;;;;5012539;28;20113;-71
2022/02/13 05:49:14;;;;;;;4.00;3.28;;;18.30;62.10;;;;;;5012393;28;20061;-71
2022/02/13 05:51:40;;;;;;;3.38;2.80;;;18.30;62.10;;;;;;4979504;28;20056;-71
2022/02/13 05:54:05;;;;;;;3.22;2.70;;;18.30;62.20;;;;;;5014418;28;20507;-71
2022/02/13 05:56:31;;;;;;;3.30;3.00;;;18.30;62.10;;;;;;5031996;28;20427;-71
2022/02/13 05:58:56;;;;;;;3.60;3.30;;;18.30;62.20;;;;;;5031668;28;20100;-71
2022/02/13 06:01:22;;;;;;;3.75;2.70;;;18.20;62.10;;;;;;5031783;28;20025;-71
2022/02/13 06:03:48;;;;;;;3.95;2.95;;;18.20;62.10;;;;;;5014496;28;20033;-71
2022/02/13 06:06:13;;;;;;;3.38;3.08;;;18.20;62.10;;;;;;5031868;28;20039;-71
2022/02/13 06:08:39;;;;;;;2.95;2.75;;;18.20;62.20;;;;;;5032064;28;20503;-71
2022/02/13 06:11:05;;;;;;;2.90;2.70;;;18.20;62.20;;;;;;5014038;28;20021;-71
2022/02/13 06:13:31;;;;;;;3.70;2.97;;;18.20;62.20;;;;;;5013889;28;20101;-71
2022/02/13 06:15:57;;;;;;;3.05;2.80;;;18.20;62.20;;;;;;5014123;28;20444;-71
2022/02/13 06:18:22;;;;;;;4.95;3.30;;;18.10;62.20;;;;;;5014232;28;20473;-71
2022/02/13 06:20:48;;;;;;;2.95;2.55;;;18.20;62.30;;;;;;5031712;28;20049;-71
2022/02/13 06:23:14;;;;;;;5.60;2.80;;;18.20;62.30;;;;;;5034574;28;20033;-71
2022/02/13 06:25:40;;;;;;;3.10;2.55;;;18.20;62.30;;;;;;5035464;28;20030;-71
2022/02/13 06:28:06;;;;;;;3.05;2.75;;;18.20;62.30;;;;;;5017516;28;20033;-71
2022/02/13 06:30:32;;;;;;;3.17;2.83;;;18.20;62.30;;;;;;5035599;28;20071;-71
2022/02/13 06:32:59;;;;;;;3.13;2.80;;;18.20;62.40;;;;;;5017554;28;20029;-71
2022/02/13 06:35:25;;;;;;;2.70;2.50;;;18.20;62.30;;;;;;5035115;28;20101;-71
2022/02/13 06:37:51;;;;;;;3.22;2.80;;;18.10;62.20;;;;;;5035349;28;20053;-71
2022/02/13 06:40:17;;;;;;;2.70;2.50;;;18.10;62.40;;;;;;5017421;28;20116;-71
2022/02/13 06:42:42;;;;;;;3.15;2.75;;;18.10;62.30;;;;;;5035014;28;20096;-71
2022/02/13 06:45:08;;;;;;;4.00;2.50;;;18.20;62.40;;;;;;5035055;28;20388;-71
2022/02/13 06:47:34;;;;;;;3.50;2.72;;;18.10;62.40;;;;;;5017488;28;20369;-71
2022/02/13 06:50:00;;;;;;;2.55;2.35;;;18.10;62.40;;;;;;5017567;28;20056;-71
2022/02/13 06:52:25;;;;;;;2.80;2.42;;;18.10;62.40;;;;;;5017003;28;20060;-71
2022/02/13 06:54:51;;;;;;;3.20;2.53;;;18.10;62.50;;;;;;5035321;28;20434;-71
2022/02/13 06:57:17;;;;;;;2.72;2.53;;;18.10;62.40;;;;;;5016985;28;20531;-71
2022/02/13 06:59:42;;;;;;;3.42;2.30;;;18.10;62.40;;;;;;5034933;28;20021;-71
2022/02/13 07:02:11;;;;;;;2.78;2.55;;;18.10;62.40;;;;;;5034731;28;20388;-71
2022/02/13 07:04:37;;;;;;;3.95;2.75;;;18.10;62.40;;;;;;5034794;28;20033;-71
2022/02/13 07:07:04;;;;;;;2.65;2.40;;;18.10;62.40;;;;;;5034753;28;20075;-71
2022/02/13 07:09:30;;;;;;;2.45;2.25;;;18.10;62.40;;;;;;5016954;28;20022;-71
2022/02/13 07:11:56;;;;;;;3.05;2.60;;;18.10;62.50;;;;;;5034158;28;20034;-71
2022/02/13 07:14:21;;;;;;;2.70;2.42;;;18.00;62.50;;;;;;5016834;28;20096;-71
2022/02/13 07:16:47;;;;;;;3.15;2.50;;;18.00;62.50;;;;;;5034510;28;20049;-71
2022/02/13 07:19:12;;;;;;;3.13;2.85;;;18.00;62.50;;;;;;5034374;28;20487;-71
2022/02/13 07:21:38;;;;;;;3.33;2.30;;;18.00;62.50;;;;;;5034474;28;20033;-71
2022/02/13 07:24:04;;;;;;;2.72;2.20;;;18.00;62.50;;;;;;5016308;28;20026;-72
2022/02/13 07:26:30;;;;;;;2.72;2.35;;;18.00;62.60;;;;;;5034329;28;20032;-71
2022/02/13 07:29:01;;;;;;;2.30;2.10;;;18.10;62.60;;;;;;5034441;28;20033;-71
2022/02/13 07:31:31;;;;;;;2.85;2.38;;;18.00;62.60;;;;;;5017364;28;20026;-71
2022/02/13 07:33:57;;;;;;;2.30;2.10;;;18.00;62.60;;;;;;5016611;28;20017;-71
2022/02/13 07:36:23;;;;;;;3.10;2.50;;;18.00;62.60;;;;;;5016452;28;20036;-71
2022/02/13 07:38:48;;;;;;;2.22;1.90;;;18.00;62.60;;;;;;5033766;28;20079;-71
2022/02/13 07:41:14;;;;;;;2.35;2.10;;;18.00;62.60;;;;;;5033624;28;20403;-71
2022/02/13 07:43:40;;;;;;;2.95;2.70;;;18.00;62.60;;;;;;5033796;28;20395;-71
2022/02/13 07:46:05;;;;;;;2.50;2.30;;;18.00;62.60;;;;;;5033643;28;20029;-70
2022/02/13 07:48:31;;;;;;;2.53;2.30;;;18.00;62.70;;;;;;5033380;28;20399;-71
2022/02/13 07:50:57;;;;;;;2.35;2.03;;;18.00;62.60;;;;;;5033495;28;20033;-71
2022/02/13 07:53:23;;;;;;;2.72;2.10;;;18.00;62.70;;;;;;5033112;28;20021;-71
2022/02/13 07:55:49;;;;;;;2.45;2.25;;;18.00;62.70;;;;;;5033641;28;20033;-71
2022/02/13 07:58:14;;;;;;;3.60;2.30;;;18.00;62.70;;;;;;5015656;28;20022;-71
2022/02/13 08:00:40;;;;;;;3.95;2.53;;;17.90;62.70;;;;;;5033406;28;20064;-71
2022/02/13 08:03:06;;;;;;;2.33;2.13;;;18.00;62.70;;;;;;5033471;28;20385;-71
2022/02/13 08:05:31;;;;;;;2.45;2.25;;;17.90;62.70;;;;;;5033562;28;20036;-71
2022/02/13 08:07:57;;;;;;;1.92;1.83;;;18.00;62.70;;;;;;5032948;28;20391;-71
2022/02/13 08:10:22;;;;;;;2.30;1.90;;;17.90;62.70;;;;;;5032938;28;20091;-71
2022/02/13 08:12:48;;;;;;;2.45;2.25;;;17.90;62.70;;;;;;5033164;28;20021;-71
2022/02/13 08:15:14;;;;;;;2.50;2.28;;;17.90;62.70;;;;;;5032943;28;20045;-72
2022/02/13 08:17:39;;;;;;;3.72;2.33;;;17.90;62.70;;;;;;5015402;28;20024;-71
2022/02/13 08:20:09;;;;;;;2.50;1.83;;;17.90;62.80;;;;;;5015444;28;20388;-71
2022/02/13 08:22:35;;;;;;;2.30;1.90;;;17.90;62.80;;;;;;5015348;28;20018;-71
2022/02/13 08:25:01;;;;;;;2.45;2.00;;;17.90;62.80;;;;;;5015523;28;20025;-71
2022/02/13 08:27:26;;;;;;;4.55;2.13;;;17.90;62.80;;;;;;5015174;28;20113;-71
2022/02/13 08:29:52;;;;;;;3.80;2.00;;;17.90;62.80;;;;;;5033055;28;20083;-71
2022/02/13 08:32:18;;;;;;;2.00;1.90;;;17.90;62.80;;;;;;5032540;28;20498;-71
2022/02/13 08:34:45;;;;;;;3.50;1.92;;;17.90;62.80;;;;;;5032712;28;20028;-71
2022/02/13 08:37:11;;;;;;;2.92;2.00;;;17.90;62.90;;;;;;5015223;28;20040;-71
2022/02/13 08:39:37;;;;;;;2.58;2.22;;;17.90;62.90;;;;;;5032477;28;20013;-71
2022/02/13 08:42:03;;;;;;;2.75;2.10;;;17.90;62.90;;;;;;5032543;28;20393;-71
2022/02/13 08:44:29;;;;;;;2.08;1.90;;;17.90;62.90;;;;;;5031674;28;20476;-71
2022/02/13 08:46:54;;;;;;;3.35;1.90;;;17.90;62.90;;;;;;5032610;28;20040;-71
2022/02/13 08:49:20;;;;;;;2.03;1.83;;;17.90;62.90;;;;;;5032470;28;20033;-71
2022/02/13 08:51:46;;;;;;;2.55;2.13;;;17.90;63.00;;;;;;5031898;28;20028;-71
2022/02/13 08:54:11;;;;;;;2.28;1.83;;;17.90;63.00;;;;;;5014828;28;20052;-71
2022/02/13 08:56:37;;;;;;;1.70;1.60;;;17.90;63.00;;;;;;5032220;28;20021;-71
2022/02/13 08:59:03;;;;;;;2.10;1.90;;;17.90;63.00;;;;;;5032423;28;20025;-71
2022/02/13 09:01:28;;;;;;;2.78;1.60;;;17.80;63.00;;;;;;5032156;28;20029;-71
2022/02/13 09:03:54;;;;;;;2.97;1.80;;;17.80;63.00;;;;;;5032337;28;20113;-72
2022/02/13 09:06:19;;;;;;;1.60;1.50;;;17.80;63.00;;;;;;5032070;28;20031;-72
2022/02/13 09:08:46;;;;;;;2.17;1.73;;;17.80;63.00;;;;;;5032058;28;20029;-71
2022/02/13 09:11:12;;;;;;;3.28;2.03;;;17.80;63.00;;;;;;5032068;28;20017;-72
2022/02/13 09:13:37;;;;;;;2.40;1.85;;;17.80;63.10;;;;;;5032070;28;20113;-72
2022/02/13 09:16:03;;;;;;;2.60;2.00;;;17.80;63.00;;;;;;5011123;28;20045;-71
2022/02/13 09:18:29;;;;;;;2.83;2.08;;;17.80;63.00;;;;;;4994722;28;20504;-71
2022/02/13 09:20:54;;;;;;;2.08;1.83;;;17.80;63.10;;;;;;5008097;28;20428;-71
2022/02/13 09:23:21;;;;;;;2.33;1.95;;;17.80;63.10;;;;;;5000476;28;20029;-71
2022/02/13 09:25:47;;;;;;;2.47;1.90;;;17.80;63.20;;;;;;5001305;28;20165;-71
2022/02/13 09:28:13;;;;;;;3.80;1.67;;;17.80;63.10;;;;;;4991813;28;20513;-71
2022/02/13 09:30:38;;;;;;;2.05;1.85;;;17.80;63.20;;;;;;5002315;28;20026;-72
2022/02/13 09:33:04;;;;;;;2.95;1.58;;;17.80;63.20;;;;;;4998925;28;20031;-71
2022/02/13 09:35:30;;;;;;;2.13;1.73;;;17.80;63.20;;;;;;5008277;28;20045;-71
2022/02/13 09:37:56;;;;;;;2.22;1.60;;;17.80;63.20;;;;;;4996613;28;20034;-71
2022/02/13 09:40:22;;;;;;;1.83;1.63;;;17.80;63.20;;;;;;5003597;28;20041;-71
2022/02/13 09:42:48;;;;;;;2.08;1.88;;;17.80;63.20;;;;;;5002220;28;20117;-71
2022/02/13 09:45:14;;;;;;;2.08;1.88;;;17.80;63.30;;;;;;4996602;28;20446;-71
2022/02/13 09:47:40;;;;;;;1.73;1.63;;;17.80;63.20;;;;;;5008446;28;20026;-71
2022/02/13 09:50:07;;;;;;;2.22;1.92;;;17.80;63.20;;;;;;4996271;28;20021;-71
2022/02/13 09:52:32;;;;;;;3.25;2.13;;;17.80;63.20;;;;;;5003160;28;20026;-71
2022/02/13 09:54:58;;;;;;;2.97;1.50;;;17.80;63.30;;;;;;5003533;28;20499;-71
2022/02/13 10:01:07;;;;;;;1.67;1.10;;;17.80;63.50;;;;;;4922472;29;20034;-73
2022/02/13 10:03:45;;;;;;;1.50;1.20;;;17.80;63.60;;;;;;4923097;29;20035;-73
2022/02/13 10:06:11;;;;;;;1.02;0.90;;;17.90;64.00;;;;;;4921199;29;20032;-73
2022/02/13 10:08:38;;;;;;;1.55;0.75;;;17.90;64.00;;;;;;4936316;29;20023;-73
2022/02/13 10:11:11;;;;;;;0.95;0.90;;;18.00;64.10;;;;;;4919506;29;20502;-72
2022/02/13 10:13:43;;;;;;;;;;;18.10;64.10;;;;;;4920352;29;20551;-72
2022/02/13 10:16:31;;;;;;;0.82;0.80;;;18.10;64.10;;;;;;4937353;29;19950;-72
2022/02/13 10:18:58;;;;;;;0.60;0.60;;;18.10;64.40;;;;;;4935756;29;20039;-73
2022/02/13 10:21:30;;;;;;;1.02;0.80;;;18.20;64.30;;;;;;4935645;29;20187;-71
2022/02/13 10:24:14;;;;;;;0.90;0.75;;;18.30;64.20;;;;;;4925439;29;20036;-71
2022/02/13 10:26:40;;;;;;;0.98;0.80;;;18.40;64.10;;;;;;4933656;29;20050;-71
2022/02/13 10:29:06;;;;;;;1.27;0.80;;;18.40;64.10;;;;;;4935958;29;20030;-71
2022/02/13 10:31:31;;;;;;;1.80;0.88;;;18.50;64.10;;;;;;4969550;28;20038;-70
2022/02/13 10:33:58;;;;;;;0.60;0.60;;;18.50;64.10;;;;;;4995046;28;20030;-72
2022/02/13 10:36:24;;;;;;;2.35;0.98;;;18.60;63.90;;;;;;4994961;28;20461;-71
2022/02/13 10:38:50;;;;;;;1.08;0.98;;;18.70;64.00;;;;;;4994285;28;20029;-71
2022/02/13 10:41:18;;;;;;;0.77;0.77;;;18.70;63.90;;;;;;4994862;28;20384;-71
2022/02/13 10:43:59;;;;;;;1.20;0.88;;;18.80;63.90;;;;;;4995594;28;20026;-72
2022/02/13 10:46:29;;;;;;;0.77;0.57;;;18.90;63.80;;;;;;4995930;28;20030;-72
2022/02/13 10:48:55;;;;;;;0.70;0.63;;;18.90;63.90;;;;;;4993681;28;20077;-72
2022/02/13 10:51:21;;;;;;;1.13;0.65;;;19.00;63.80;;;;;;4999992;28;20025;-71
2022/02/13 10:53:47;;;;;;;0.70;0.63;;;19.00;63.70;;;;;;5001425;28;20531;-71
2022/02/13 10:56:12;;;;;;;1.10;0.70;;;19.10;63.70;;;;;;4994942;28;20496;-71
2022/02/13 10:58:38;;;;;;;0.60;0.60;;;19.10;63.60;;;;;;5011772;28;20024;-71
2022/02/13 11:01:06;;;;;;;0.70;0.65;;;19.20;63.60;;;;;;4995377;28;20030;-72
2022/02/13 11:03:33;;;;;;;0.68;0.60;;;19.20;63.50;;;;;;4994266;28;20050;-72
2022/02/13 11:06:03;;;;;;;1.25;0.50;;;19.30;63.60;;;;;;4994440;28;20038;-72
2022/02/13 11:08:31;;;;;;;0.85;0.70;;;19.30;63.50;;;;;;4993842;28;20030;-72
2022/02/13 11:10:58;;;;;;;1.00;0.63;;;19.40;63.50;;;;;;4994167;28;20052;-71
2022/02/13 11:13:31;;;;;;;0.82;0.60;;;19.40;63.50;;;;;;4994380;28;20022;-71
2022/02/13 11:15:58;;;;;;;0.60;0.60;;;19.50;63.50;;;;;;4993240;28;20050;-72
2022/02/13 11:18:31;;;;;;;0.95;0.60;;;19.50;63.50;;;;;;4993786;28;20026;-72
2022/02/13 11:20:57;;;;;;;0.73;0.60;;;19.50;63.30;;;;;;4977558;28;20429;-72
2022/02/13 11:23:24;;;;;;;0.80;0.80;;;19.60;63.30;;;;;;4988584;28;20034;-72
2022/02/13 11:25:49;;;;;;;0.70;0.70;;;19.60;63.20;;;;;;4983348;28;20157;-72
2022/02/13 11:28:16;;;;;;;0.60;0.52;;;19.70;63.20;;;;;;4994906;28;20436;-73
2022/02/13 11:30:49;;;;;;;1.80;0.70;;;19.70;63.20;;;;;;4993267;28;20031;-73
2022/02/13 11:33:30;;;;;;;0.70;0.70;;;19.80;63.20;;;;;;4980316;28;20596;-73
2022/02/13 11:36:04;;;;;;;0.47;0.47;;;19.80;63.10;;;;;;4995203;28;20026;-73
2022/02/13 11:38:48;;;;;;;0.80;0.65;;;19.80;63.10;;;;;;4993441;28;20101;-73
2022/02/13 11:41:19;;;;;;;0.85;0.65;;;19.90;62.70;;;;;;4987327;28;20037;-73
2022/02/13 11:43:45;;;;;;;0.63;0.60;;;19.90;63.00;;;;;;4985411;28;20114;-72
2022/02/13 11:46:25;;;;;;;0.43;0.43;;;19.90;62.90;;;;;;4994033;28;20109;-72
2022/02/13 11:49:02;;;;;;;0.65;0.60;;;20.00;62.70;;;;;;4994429;28;20570;-73
2022/02/13 11:51:46;;;;;;;0.57;0.57;;;20.00;62.70;;;;;;4992628;28;20053;-72
2022/02/13 11:54:47;;;;;;;1.00;0.75;;;20.00;62.40;;;;;;4994683;28;20026;-72
2022/02/13 11:57:15;;;;;;;0.60;0.60;;;20.10;62.40;;;;;;4994286;28;20121;-72
2022/02/13 12:00:09;;;;;;;0.93;0.77;;;20.10;62.80;;;;;;4981863;28;20026;-72
2022/02/13 12:02:35;;;;;;;1.08;0.60;;;20.10;62.20;;;;;;4992933;28;20054;-72
2022/02/13 12:05:06;;;;;;;0.57;0.55;;;20.10;62.70;;;;;;4993601;28;20026;-72
2022/02/13 12:07:55;;;;;;;0.67;0.50;;;20.20;62.60;;;;;;4993659;28;20484;-72
2022/02/13 12:10:31;;;;;;;0.73;0.60;;;20.20;62.50;;;;;;4981260;28;20026;-73
2022/02/13 12:13:07;;;;;;;0.68;0.68;;;20.20;62.40;;;;;;4993684;28;20019;-73
2022/02/13 12:15:33;;;;;;;0.80;0.70;;;20.20;62.30;;;;;;4985109;28;20034;-72
2022/02/13 12:18:05;;;;;;;0.65;0.60;;;20.20;62.30;;;;;;5013307;28;20033;-72
2022/02/13 12:20:31;;;;;;;0.50;0.50;;;20.30;62.30;;;;;;5012980;28;20059;-72
2022/02/13 12:23:12;;;;;;;0.45;0.45;;;20.30;62.30;;;;;;5013060;28;20026;-74
2022/02/13 12:25:41;;;;;;;0.55;0.47;;;20.40;61.90;;;;;;5012287;28;20057;-74
2022/02/13 12:28:07;;;;;;;0.93;0.68;;;20.30;62.20;;;;;;5013414;28;20022;-76
2022/02/13 12:30:33;;;;;;;0.75;0.60;;;20.40;62.20;;;;;;5012169;28;20026;-74
2022/02/13 12:33:00;;;;;;;0.55;0.55;;;20.40;62.10;;;;;;5012049;28;20024;-72
2022/02/13 12:35:35;;;;;;;1.27;0.50;;;20.40;62.00;;;;;;5012402;28;20480;-72
2022/02/13 12:38:02;;;;;;;0.70;0.70;;;20.40;61.70;;;;;;5012062;28;20022;-72
2022/02/13 12:40:28;;;;;;;0.60;0.60;;;20.40;61.90;;;;;;5012306;28;20100;-72
2022/02/13 12:42:56;;;;;;;1.13;0.60;;;20.50;61.90;;;;;;5012566;28;20495;-72
2022/02/13 12:45:25;;;;;;;0.30;0.30;;;20.50;61.80;;;;;;4978952;28;20439;-72
2022/02/13 12:47:53;;;;;;;0.35;0.35;;;20.50;61.70;;;;;;5013194;28;20022;-73